sensor_id;sensor_type;location;lat;lon;timestamp;P1;durP1;ratioP1;P2;durP2;ratioP2
68655;SDS011;55638;51.122;13.606;2023-03-01T00:00:50;23.75;;;15.57;;
68655;SDS011;55638;51.122;13.606;2023-03-01T00:02:21;23.70;;;15.00;;
68655;SDS011;55638;51.122;13.606;2023-03-01T00:03:54;24.10;;;14.73;;
68655;SDS011;55638;51.122;13.606;2023-03-01T00:05:26;25.15;;;15.85;;
68655;SDS011;55638;51.122;13.606;2023-03-01T00:06:58;24.70;;;15.05;;
68655;SDS011;55638;51.122;13.606;2023-03-01T00:08:30;23.98;;;14.35;;
68655;SDS011;55638;51.122;13.606;2023-03-01T00:10:02;25.92;;;15.52;;
68655;SDS011;55638;51.122;13.606;2023-03-01T00:11:34;21.48;;;14.88;;
68655;SDS011;55638;51.122;13.606;2023-03-01T00:13:06;24.05;;;15.57;;
68655;SDS011;55638;51.122;13.606;2023-03-01T00:14:38;24.98;;;15.10;;
68655;SDS011;55638;51.122;13.606;2023-03-01T00:16:12;24.42;;;15.50;;
68655;SDS011;55638;51.122;13.606;2023-03-01T00:17:47;26.42;;;15.85;;
68655;SDS011;55638;51.122;13.606;2023-03-01T00:19:19;24.25;;;15.77;;
68655;SDS011;55638;51.122;13.606;2023-03-01T00:20:51;26.08;;;16.02;;
68655;SDS011;55638;51.122;13.606;2023-03-01T00:22:24;25.02;;;16.05;;
68655;SDS011;55638;51.122;13.606;2023-03-01T00:23:58;23.55;;;14.90;;
68655;SDS011;55638;51.122;13.606;2023-03-01T00:25:30;27.63;;;15.93;;
68655;SDS011;55638;51.122;13.606;2023-03-01T00:27:02;26.40;;;16.48;;
68655;SDS011;55638;51.122;13.606;2023-03-01T00:28:34;28.95;;;16.63;;
68655;SDS011;55638;51.122;13.606;2023-03-01T00:30:06;26.35;;;16.90;;
68655;SDS011;55638;51.122;13.606;2023-03-01T00:31:38;25.95;;;16.27;;
68655;SDS011;55638;51.122;13.606;2023-03-01T00:33:10;25.63;;;17.05;;
68655;SDS011;55638;51.122;13.606;2023-03-01T00:34:43;26.65;;;17.42;;
68655;SDS011;55638;51.122;13.606;2023-03-01T00:36:26;26.08;;;17.70;;
68655;SDS011;55638;51.122;13.606;2023-03-01T00:38:00;25.65;;;17.08;;
68655;SDS011;55638;51.122;13.606;2023-03-01T00:39:32;29.58;;;19.20;;
68655;SDS011;55638;51.122;13.606;2023-03-01T00:41:08;28.35;;;18.95;;
68655;SDS011;55638;51.122;13.606;2023-03-01T00:42:46;27.48;;;18.17;;
68655;SDS011;55638;51.122;13.606;2023-03-01T00:44:17;29.38;;;17.98;;
68655;SDS011;55638;51.122;13.606;2023-03-01T00:45:49;28.67;;;18.38;;
68655;SDS011;55638;51.122;13.606;2023-03-01T00:47:21;27.75;;;17.58;;
68655;SDS011;55638;51.122;13.606;2023-03-01T00:48:53;27.77;;;17.75;;
68655;SDS011;55638;51.122;13.606;2023-03-01T00:50:28;27.45;;;16.75;;
68655;SDS011;55638;51.122;13.606;2023-03-01T00:52:00;26.42;;;16.90;;
68655;SDS011;55638;51.122;13.606;2023-03-01T00:53:31;26.23;;;15.90;;
68655;SDS011;55638;51.122;13.606;2023-03-01T00:55:04;24.80;;;15.73;;
68655;SDS011;55638;51.122;13.606;2023-03-01T00:56:36;24.88;;;15.43;;
68655;SDS011;55638;51.122;13.606;2023-03-01T00:58:08;23.52;;;15.35;;
68655;SDS011;55638;51.122;13.606;2023-03-01T00:59:39;23.15;;;14.90;;
68655;SDS011;55638;51.122;13.606;2023-03-01T01:01:15;25.33;;;15.93;;
68655;SDS011;55638;51.122;13.606;2023-03-01T01:02:49;25.35;;;15.68;;
68655;SDS011;55638;51.122;13.606;2023-03-01T01:04:21;26.67;;;16.50;;
68655;SDS011;55638;51.122;13.606;2023-03-01T01:05:53;25.05;;;16.33;;
68655;SDS011;55638;51.122;13.606;2023-03-01T01:07:25;23.92;;;15.43;;
68655;SDS011;55638;51.122;13.606;2023-03-01T01:08:57;23.98;;;14.90;;
68655;SDS011;55638;51.122;13.606;2023-03-01T01:10:30;24.70;;;15.27;;
68655;SDS011;55638;51.122;13.606;2023-03-01T01:12:01;23.98;;;14.65;;
68655;SDS011;55638;51.122;13.606;2023-03-01T01:13:34;24.88;;;14.27;;
68655;SDS011;55638;51.122;13.606;2023-03-01T01:15:05;23.73;;;14.77;;
68655;SDS011;55638;51.122;13.606;2023-03-01T01:16:38;23.58;;;15.23;;
68655;SDS011;55638;51.122;13.606;2023-03-01T01:18:10;23.35;;;14.55;;
68655;SDS011;55638;51.122;13.606;2023-03-01T01:19:42;27.08;;;16.00;;
68655;SDS011;55638;51.122;13.606;2023-03-01T01:21:15;25.60;;;15.77;;
68655;SDS011;55638;51.122;13.606;2023-03-01T01:22:49;23.98;;;15.68;;
68655;SDS011;55638;51.122;13.606;2023-03-01T01:24:20;25.55;;;14.95;;
68655;SDS011;55638;51.122;13.606;2023-03-01T01:25:52;24.75;;;15.32;;
68655;SDS011;55638;51.122;13.606;2023-03-01T01:27:25;25.38;;;15.27;;
68655;SDS011;55638;51.122;13.606;2023-03-01T01:28:56;24.50;;;16.50;;
68655;SDS011;55638;51.122;13.606;2023-03-01T01:30:28;24.38;;;14.57;;
68655;SDS011;55638;51.122;13.606;2023-03-01T01:32:00;24.00;;;16.40;;
68655;SDS011;55638;51.122;13.606;2023-03-01T01:33:32;25.70;;;17.08;;
68655;SDS011;55638;51.122;13.606;2023-03-01T01:35:05;27.35;;;17.45;;
68655;SDS011;55638;51.122;13.606;2023-03-01T01:36:37;26.67;;;17.33;;
68655;SDS011;55638;51.122;13.606;2023-03-01T01:38:08;27.88;;;16.95;;
68655;SDS011;55638;51.122;13.606;2023-03-01T01:39:40;27.08;;;17.27;;
68655;SDS011;55638;51.122;13.606;2023-03-01T01:41:12;26.20;;;16.90;;
68655;SDS011;55638;51.122;13.606;2023-03-01T01:42:44;24.55;;;15.48;;
68655;SDS011;55638;51.122;13.606;2023-03-01T01:46:06;26.45;;;15.57;;
68655;SDS011;55638;51.122;13.606;2023-03-01T01:47:47;23.20;;;14.63;;
68655;SDS011;55638;51.122;13.606;2023-03-01T01:51:28;22.25;;;14.05;;
68655;SDS011;55638;51.122;13.606;2023-03-01T01:53:12;24.98;;;14.45;;
68655;SDS011;55638;51.122;13.606;2023-03-01T01:55:22;24.02;;;15.00;;
68655;SDS011;55638;51.122;13.606;2023-03-01T01:56:52;22.98;;;14.95;;
68655;SDS011;55638;51.122;13.606;2023-03-01T01:58:28;22.17;;;14.00;;
68655;SDS011;55638;51.122;13.606;2023-03-01T02:00:12;24.20;;;14.77;;
68655;SDS011;55638;51.122;13.606;2023-03-01T02:01:47;25.48;;;14.85;;
68655;SDS011;55638;51.122;13.606;2023-03-01T02:03:23;21.70;;;14.18;;
68655;SDS011;55638;51.122;13.606;2023-03-01T02:05:09;23.60;;;14.40;;
68655;SDS011;55638;51.122;13.606;2023-03-01T02:06:51;22.75;;;13.93;;
68655;SDS011;55638;51.122;13.606;2023-03-01T02:08:30;23.80;;;14.38;;
68655;SDS011;55638;51.122;13.606;2023-03-01T02:10:05;23.58;;;14.75;;
68655;SDS011;55638;51.122;13.606;2023-03-01T02:11:38;23.50;;;14.82;;
68655;SDS011;55638;51.122;13.606;2023-03-01T02:13:10;22.58;;;14.23;;
68655;SDS011;55638;51.122;13.606;2023-03-01T02:14:43;25.10;;;15.38;;
68655;SDS011;55638;51.122;13.606;2023-03-01T02:16:16;24.05;;;15.60;;
68655;SDS011;55638;51.122;13.606;2023-03-01T02:17:48;25.52;;;15.20;;
68655;SDS011;55638;51.122;13.606;2023-03-01T02:20:23;24.10;;;15.10;;
68655;SDS011;55638;51.122;13.606;2023-03-01T02:21:45;26.35;;;14.68;;
68655;SDS011;55638;51.122;13.606;2023-03-01T02:23:24;24.02;;;15.43;;
68655;SDS011;55638;51.122;13.606;2023-03-01T02:26:42;23.75;;;15.32;;
68655;SDS011;55638;51.122;13.606;2023-03-01T02:28:21;23.20;;;14.73;;
68655;SDS011;55638;51.122;13.606;2023-03-01T02:29:57;24.05;;;15.35;;
68655;SDS011;55638;51.122;13.606;2023-03-01T02:31:29;22.42;;;13.18;;
68655;SDS011;55638;51.122;13.606;2023-03-01T02:33:13;24.20;;;14.60;;
68655;SDS011;55638;51.122;13.606;2023-03-01T02:34:44;21.00;;;13.90;;
68655;SDS011;55638;51.122;13.606;2023-03-01T02:36:17;22.08;;;14.23;;
68655;SDS011;55638;51.122;13.606;2023-03-01T02:37:52;23.48;;;14.75;;
68655;SDS011;55638;51.122;13.606;2023-03-01T02:39:25;22.77;;;14.45;;
68655;SDS011;55638;51.122;13.606;2023-03-01T02:41:00;24.90;;;15.88;;
68655;SDS011;55638;51.122;13.606;2023-03-01T02:42:36;23.38;;;14.95;;
68655;SDS011;55638;51.122;13.606;2023-03-01T02:45:49;25.23;;;14.82;;
68655;SDS011;55638;51.122;13.606;2023-03-01T02:47:22;28.35;;;16.92;;
68655;SDS011;55638;51.122;13.606;2023-03-01T02:48:56;26.05;;;16.08;;
68655;SDS011;55638;51.122;13.606;2023-03-01T02:54:16;22.50;;;14.85;;
68655;SDS011;55638;51.122;13.606;2023-03-01T02:55:57;23.92;;;15.55;;
68655;SDS011;55638;51.122;13.606;2023-03-01T02:57:29;24.92;;;15.55;;
68655;SDS011;55638;51.122;13.606;2023-03-01T02:59:03;24.10;;;15.10;;
68655;SDS011;55638;51.122;13.606;2023-03-01T03:00:36;23.73;;;15.25;;
68655;SDS011;55638;51.122;13.606;2023-03-01T03:02:22;24.83;;;14.73;;
68655;SDS011;55638;51.122;13.606;2023-03-01T03:04:23;24.80;;;15.77;;
68655;SDS011;55638;51.122;13.606;2023-03-01T03:05:55;27.25;;;15.52;;
68655;SDS011;55638;51.122;13.606;2023-03-01T03:07:27;24.50;;;15.23;;
68655;SDS011;55638;51.122;13.606;2023-03-01T03:08:59;24.83;;;15.10;;
68655;SDS011;55638;51.122;13.606;2023-03-01T03:10:33;22.00;;;14.85;;
68655;SDS011;55638;51.122;13.606;2023-03-01T03:12:07;24.38;;;15.57;;
68655;SDS011;55638;51.122;13.606;2023-03-01T03:13:39;27.20;;;16.15;;
68655;SDS011;55638;51.122;13.606;2023-03-01T03:15:20;25.00;;;15.70;;
68655;SDS011;55638;51.122;13.606;2023-03-01T03:16:53;25.50;;;15.40;;
68655;SDS011;55638;51.122;13.606;2023-03-01T03:18:25;24.08;;;15.32;;
68655;SDS011;55638;51.122;13.606;2023-03-01T03:20:00;26.50;;;15.40;;
68655;SDS011;55638;51.122;13.606;2023-03-01T03:21:32;23.17;;;15.63;;
68655;SDS011;55638;51.122;13.606;2023-03-01T03:23:05;23.60;;;15.82;;
68655;SDS011;55638;51.122;13.606;2023-03-01T03:24:36;25.15;;;15.95;;
68655;SDS011;55638;51.122;13.606;2023-03-01T03:26:09;24.25;;;14.65;;
68655;SDS011;55638;51.122;13.606;2023-03-01T03:27:45;22.00;;;14.25;;
68655;SDS011;55638;51.122;13.606;2023-03-01T03:29:18;24.17;;;14.77;;
68655;SDS011;55638;51.122;13.606;2023-03-01T03:30:50;21.63;;;13.77;;
68655;SDS011;55638;51.122;13.606;2023-03-01T03:32:22;21.52;;;13.95;;
68655;SDS011;55638;51.122;13.606;2023-03-01T03:33:54;19.67;;;12.73;;
68655;SDS011;55638;51.122;13.606;2023-03-01T03:35:27;22.75;;;13.90;;
68655;SDS011;55638;51.122;13.606;2023-03-01T03:37:04;20.10;;;13.43;;
68655;SDS011;55638;51.122;13.606;2023-03-01T03:38:56;20.88;;;12.60;;
68655;SDS011;55638;51.122;13.606;2023-03-01T03:40:29;20.90;;;12.68;;
68655;SDS011;55638;51.122;13.606;2023-03-01T03:42:03;20.92;;;12.93;;
68655;SDS011;55638;51.122;13.606;2023-03-01T03:43:35;20.33;;;12.50;;
68655;SDS011;55638;51.122;13.606;2023-03-01T03:45:08;22.17;;;13.27;;
68655;SDS011;55638;51.122;13.606;2023-03-01T03:46:40;22.08;;;13.85;;
68655;SDS011;55638;51.122;13.606;2023-03-01T03:48:12;25.08;;;13.70;;
68655;SDS011;55638;51.122;13.606;2023-03-01T03:49:43;21.88;;;13.73;;
68655;SDS011;55638;51.122;13.606;2023-03-01T03:51:16;22.48;;;13.73;;
68655;SDS011;55638;51.122;13.606;2023-03-01T03:52:49;22.15;;;13.57;;
68655;SDS011;55638;51.122;13.606;2023-03-01T03:54:21;22.25;;;14.13;;
68655;SDS011;55638;51.122;13.606;2023-03-01T03:55:53;23.38;;;14.52;;
68655;SDS011;55638;51.122;13.606;2023-03-01T03:57:25;24.75;;;14.73;;
68655;SDS011;55638;51.122;13.606;2023-03-01T03:58:56;24.05;;;14.48;;
68655;SDS011;55638;51.122;13.606;2023-03-01T04:00:28;22.35;;;14.48;;
68655;SDS011;55638;51.122;13.606;2023-03-01T04:02:00;23.85;;;14.75;;
68655;SDS011;55638;51.122;13.606;2023-03-01T04:03:32;23.15;;;13.98;;
68655;SDS011;55638;51.122;13.606;2023-03-01T04:05:07;25.63;;;14.82;;
68655;SDS011;55638;51.122;13.606;2023-03-01T04:06:40;25.17;;;15.07;;
68655;SDS011;55638;51.122;13.606;2023-03-01T04:08:12;24.70;;;14.95;;
68655;SDS011;55638;51.122;13.606;2023-03-01T04:09:45;26.98;;;15.82;;
68655;SDS011;55638;51.122;13.606;2023-03-01T04:11:16;26.63;;;15.40;;
68655;SDS011;55638;51.122;13.606;2023-03-01T04:12:57;24.65;;;15.45;;
68655;SDS011;55638;51.122;13.606;2023-03-01T04:14:29;23.95;;;15.00;;
68655;SDS011;55638;51.122;13.606;2023-03-01T04:16:01;24.88;;;15.20;;
68655;SDS011;55638;51.122;13.606;2023-03-01T04:17:33;26.95;;;16.10;;
68655;SDS011;55638;51.122;13.606;2023-03-01T04:19:05;24.67;;;15.32;;
68655;SDS011;55638;51.122;13.606;2023-03-01T04:20:37;24.27;;;14.10;;
68655;SDS011;55638;51.122;13.606;2023-03-01T04:22:10;23.23;;;14.88;;
68655;SDS011;55638;51.122;13.606;2023-03-01T04:23:42;23.25;;;14.52;;
68655;SDS011;55638;51.122;13.606;2023-03-01T04:25:14;24.55;;;15.07;;
68655;SDS011;55638;51.122;13.606;2023-03-01T04:26:46;23.50;;;14.00;;
68655;SDS011;55638;51.122;13.606;2023-03-01T04:28:18;22.35;;;13.55;;
68655;SDS011;55638;51.122;13.606;2023-03-01T04:29:50;25.23;;;15.15;;
68655;SDS011;55638;51.122;13.606;2023-03-01T04:31:21;24.50;;;15.73;;
68655;SDS011;55638;51.122;13.606;2023-03-01T04:32:53;26.88;;;16.80;;
68655;SDS011;55638;51.122;13.606;2023-03-01T04:34:25;26.13;;;15.68;;
68655;SDS011;55638;51.122;13.606;2023-03-01T04:35:58;25.88;;;15.25;;
68655;SDS011;55638;51.122;13.606;2023-03-01T04:37:30;27.15;;;15.68;;
68655;SDS011;55638;51.122;13.606;2023-03-01T04:39:01;23.55;;;14.63;;
68655;SDS011;55638;51.122;13.606;2023-03-01T04:40:43;24.08;;;15.10;;
68655;SDS011;55638;51.122;13.606;2023-03-01T04:42:15;23.83;;;15.02;;
68655;SDS011;55638;51.122;13.606;2023-03-01T04:43:48;24.65;;;15.20;;
68655;SDS011;55638;51.122;13.606;2023-03-01T04:45:20;24.02;;;14.68;;
68655;SDS011;55638;51.122;13.606;2023-03-01T04:46:52;24.33;;;14.68;;
68655;SDS011;55638;51.122;13.606;2023-03-01T04:48:24;23.35;;;14.60;;
68655;SDS011;55638;51.122;13.606;2023-03-01T04:49:56;24.08;;;14.02;;
68655;SDS011;55638;51.122;13.606;2023-03-01T04:51:28;24.83;;;14.90;;
68655;SDS011;55638;51.122;13.606;2023-03-01T04:53:00;26.08;;;14.25;;
68655;SDS011;55638;51.122;13.606;2023-03-01T04:54:33;25.67;;;15.30;;
68655;SDS011;55638;51.122;13.606;2023-03-01T04:56:06;24.58;;;15.25;;
68655;SDS011;55638;51.122;13.606;2023-03-01T04:57:37;23.23;;;14.00;;
68655;SDS011;55638;51.122;13.606;2023-03-01T04:59:10;23.25;;;14.73;;
68655;SDS011;55638;51.122;13.606;2023-03-01T05:00:44;23.23;;;14.23;;
68655;SDS011;55638;51.122;13.606;2023-03-01T05:02:15;22.27;;;14.15;;
68655;SDS011;55638;51.122;13.606;2023-03-01T05:03:48;24.25;;;13.43;;
68655;SDS011;55638;51.122;13.606;2023-03-01T05:05:25;25.15;;;14.40;;
68655;SDS011;55638;51.122;13.606;2023-03-01T05:07:02;22.85;;;14.18;;
68655;SDS011;55638;51.122;13.606;2023-03-01T05:08:34;26.13;;;15.88;;
68655;SDS011;55638;51.122;13.606;2023-03-01T05:10:08;24.85;;;15.05;;
68655;SDS011;55638;51.122;13.606;2023-03-01T05:11:40;26.95;;;15.35;;
68655;SDS011;55638;51.122;13.606;2023-03-01T05:13:13;21.95;;;14.13;;
68655;SDS011;55638;51.122;13.606;2023-03-01T05:14:52;22.23;;;13.98;;
68655;SDS011;55638;51.122;13.606;2023-03-01T05:16:23;22.10;;;13.57;;
68655;SDS011;55638;51.122;13.606;2023-03-01T05:17:56;24.55;;;14.25;;
68655;SDS011;55638;51.122;13.606;2023-03-01T05:19:30;22.02;;;13.30;;
68655;SDS011;55638;51.122;13.606;2023-03-01T05:21:07;22.58;;;13.50;;
68655;SDS011;55638;51.122;13.606;2023-03-01T05:22:43;22.45;;;13.73;;
68655;SDS011;55638;51.122;13.606;2023-03-01T05:24:15;23.10;;;13.88;;
68655;SDS011;55638;51.122;13.606;2023-03-01T05:25:47;21.50;;;13.23;;
68655;SDS011;55638;51.122;13.606;2023-03-01T05:27:19;22.52;;;13.85;;
68655;SDS011;55638;51.122;13.606;2023-03-01T05:28:53;23.85;;;13.48;;
68655;SDS011;55638;51.122;13.606;2023-03-01T05:30:31;22.33;;;13.27;;
68655;SDS011;55638;51.122;13.606;2023-03-01T05:32:04;23.02;;;13.70;;
68655;SDS011;55638;51.122;13.606;2023-03-01T05:33:36;23.30;;;12.98;;
68655;SDS011;55638;51.122;13.606;2023-03-01T05:35:13;23.08;;;13.27;;
68655;SDS011;55638;51.122;13.606;2023-03-01T05:36:46;21.67;;;13.50;;
68655;SDS011;55638;51.122;13.606;2023-03-01T05:38:18;24.95;;;13.68;;
68655;SDS011;55638;51.122;13.606;2023-03-01T05:39:49;24.83;;;13.80;;
68655;SDS011;55638;51.122;13.606;2023-03-01T05:41:21;22.45;;;13.52;;
68655;SDS011;55638;51.122;13.606;2023-03-01T05:42:54;22.17;;;13.77;;
68655;SDS011;55638;51.122;13.606;2023-03-01T05:44:28;22.55;;;13.50;;
68655;SDS011;55638;51.122;13.606;2023-03-01T05:46:00;22.80;;;13.90;;
68655;SDS011;55638;51.122;13.606;2023-03-01T05:47:32;21.70;;;13.52;;
68655;SDS011;55638;51.122;13.606;2023-03-01T05:49:03;23.33;;;13.50;;
68655;SDS011;55638;51.122;13.606;2023-03-01T05:50:37;23.05;;;13.63;;
68655;SDS011;55638;51.122;13.606;2023-03-01T05:52:11;25.15;;;14.63;;
68655;SDS011;55638;51.122;13.606;2023-03-01T05:53:42;24.50;;;14.45;;
68655;SDS011;55638;51.122;13.606;2023-03-01T05:55:15;24.30;;;13.93;;
68655;SDS011;55638;51.122;13.606;2023-03-01T05:56:49;27.00;;;15.55;;
68655;SDS011;55638;51.122;13.606;2023-03-01T05:58:20;24.23;;;15.45;;
68655;SDS011;55638;51.122;13.606;2023-03-01T05:59:53;26.88;;;16.05;;
68655;SDS011;55638;51.122;13.606;2023-03-01T06:01:25;25.73;;;14.95;;
68655;SDS011;55638;51.122;13.606;2023-03-01T06:02:57;24.92;;;15.43;;
68655;SDS011;55638;51.122;13.606;2023-03-01T06:04:29;26.20;;;15.15;;
68655;SDS011;55638;51.122;13.606;2023-03-01T06:06:02;26.02;;;16.25;;
68655;SDS011;55638;51.122;13.606;2023-03-01T06:07:34;28.10;;;16.58;;
68655;SDS011;55638;51.122;13.606;2023-03-01T06:09:06;27.88;;;16.98;;
68655;SDS011;55638;51.122;13.606;2023-03-01T06:10:40;26.63;;;15.40;;
68655;SDS011;55638;51.122;13.606;2023-03-01T06:12:12;23.98;;;14.05;;
68655;SDS011;55638;51.122;13.606;2023-03-01T06:13:44;23.38;;;14.20;;
68655;SDS011;55638;51.122;13.606;2023-03-01T06:15:16;25.90;;;15.00;;
68655;SDS011;55638;51.122;13.606;2023-03-01T06:16:48;24.13;;;14.40;;
68655;SDS011;55638;51.122;13.606;2023-03-01T06:18:20;24.15;;;14.73;;
68655;SDS011;55638;51.122;13.606;2023-03-01T06:19:52;26.27;;;14.57;;
68655;SDS011;55638;51.122;13.606;2023-03-01T06:21:24;24.27;;;15.07;;
68655;SDS011;55638;51.122;13.606;2023-03-01T06:22:57;26.48;;;15.50;;
68655;SDS011;55638;51.122;13.606;2023-03-01T06:24:29;24.63;;;14.82;;
68655;SDS011;55638;51.122;13.606;2023-03-01T06:26:04;24.27;;;14.18;;
68655;SDS011;55638;51.122;13.606;2023-03-01T06:27:38;21.70;;;13.98;;
68655;SDS011;55638;51.122;13.606;2023-03-01T06:29:11;24.42;;;14.10;;
68655;SDS011;55638;51.122;13.606;2023-03-01T06:30:43;23.65;;;14.80;;
68655;SDS011;55638;51.122;13.606;2023-03-01T06:32:15;24.20;;;14.80;;
68655;SDS011;55638;51.122;13.606;2023-03-01T06:33:46;23.60;;;14.48;;
68655;SDS011;55638;51.122;13.606;2023-03-01T06:35:18;23.25;;;14.45;;
68655;SDS011;55638;51.122;13.606;2023-03-01T06:36:50;22.50;;;14.15;;
68655;SDS011;55638;51.122;13.606;2023-03-01T06:38:23;21.85;;;14.02;;
68655;SDS011;55638;51.122;13.606;2023-03-01T06:39:55;23.90;;;13.85;;
68655;SDS011;55638;51.122;13.606;2023-03-01T06:41:27;21.30;;;13.85;;
68655;SDS011;55638;51.122;13.606;2023-03-01T06:42:59;22.45;;;13.82;;
68655;SDS011;55638;51.122;13.606;2023-03-01T06:44:31;23.08;;;13.77;;
68655;SDS011;55638;51.122;13.606;2023-03-01T06:46:05;24.65;;;13.85;;
68655;SDS011;55638;51.122;13.606;2023-03-01T06:47:41;22.98;;;13.68;;
68655;SDS011;55638;51.122;13.606;2023-03-01T06:49:12;26.58;;;15.60;;
68655;SDS011;55638;51.122;13.606;2023-03-01T06:50:44;24.02;;;14.10;;
68655;SDS011;55638;51.122;13.606;2023-03-01T06:52:16;24.27;;;14.73;;
68655;SDS011;55638;51.122;13.606;2023-03-01T06:53:48;23.90;;;14.43;;
68655;SDS011;55638;51.122;13.606;2023-03-01T06:55:20;23.02;;;14.23;;
68655;SDS011;55638;51.122;13.606;2023-03-01T06:56:51;21.98;;;13.43;;
68655;SDS011;55638;51.122;13.606;2023-03-01T06:58:23;22.25;;;14.05;;
68655;SDS011;55638;51.122;13.606;2023-03-01T06:59:55;23.25;;;12.85;;
68655;SDS011;55638;51.122;13.606;2023-03-01T07:01:27;21.67;;;13.60;;
68655;SDS011;55638;51.122;13.606;2023-03-01T07:02:59;22.67;;;13.57;;
68655;SDS011;55638;51.122;13.606;2023-03-01T07:04:33;21.63;;;12.95;;
68655;SDS011;55638;51.122;13.606;2023-03-01T07:06:05;21.40;;;13.77;;
68655;SDS011;55638;51.122;13.606;2023-03-01T07:07:37;21.70;;;13.95;;
68655;SDS011;55638;51.122;13.606;2023-03-01T07:09:09;19.58;;;13.07;;
68655;SDS011;55638;51.122;13.606;2023-03-01T07:10:40;21.80;;;13.38;;
68655;SDS011;55638;51.122;13.606;2023-03-01T07:12:12;21.67;;;13.38;;
68655;SDS011;55638;51.122;13.606;2023-03-01T07:13:44;22.30;;;13.48;;
68655;SDS011;55638;51.122;13.606;2023-03-01T07:15:16;22.92;;;14.48;;
68655;SDS011;55638;51.122;13.606;2023-03-01T07:16:48;21.02;;;13.55;;
68655;SDS011;55638;51.122;13.606;2023-03-01T07:18:20;21.20;;;13.85;;
68655;SDS011;55638;51.122;13.606;2023-03-01T07:19:52;22.02;;;14.45;;
68655;SDS011;55638;51.122;13.606;2023-03-01T07:21:24;23.02;;;14.15;;
68655;SDS011;55638;51.122;13.606;2023-03-01T07:22:55;23.02;;;15.25;;
68655;SDS011;55638;51.122;13.606;2023-03-01T07:24:29;22.58;;;14.40;;
68655;SDS011;55638;51.122;13.606;2023-03-01T07:26:01;24.25;;;14.48;;
68655;SDS011;55638;51.122;13.606;2023-03-01T07:27:33;22.67;;;14.65;;
68655;SDS011;55638;51.122;13.606;2023-03-01T07:29:06;24.23;;;14.93;;
68655;SDS011;55638;51.122;13.606;2023-03-01T07:30:40;22.33;;;13.73;;
68655;SDS011;55638;51.122;13.606;2023-03-01T07:32:12;23.13;;;14.35;;
68655;SDS011;55638;51.122;13.606;2023-03-01T07:33:44;23.30;;;15.40;;
68655;SDS011;55638;51.122;13.606;2023-03-01T07:35:19;22.45;;;15.20;;
68655;SDS011;55638;51.122;13.606;2023-03-01T07:36:51;24.48;;;15.18;;
68655;SDS011;55638;51.122;13.606;2023-03-01T07:38:22;23.25;;;14.68;;
68655;SDS011;55638;51.122;13.606;2023-03-01T07:39:54;23.27;;;15.00;;
68655;SDS011;55638;51.122;13.606;2023-03-01T07:41:26;23.00;;;14.38;;
68655;SDS011;55638;51.122;13.606;2023-03-01T07:42:58;24.02;;;15.18;;
68655;SDS011;55638;51.122;13.606;2023-03-01T07:44:30;23.60;;;14.48;;
68655;SDS011;55638;51.122;13.606;2023-03-01T07:46:02;24.08;;;14.73;;
68655;SDS011;55638;51.122;13.606;2023-03-01T07:47:35;23.20;;;15.38;;
68655;SDS011;55638;51.122;13.606;2023-03-01T07:49:07;24.95;;;16.33;;
68655;SDS011;55638;51.122;13.606;2023-03-01T07:50:38;25.02;;;15.52;;
68655;SDS011;55638;51.122;13.606;2023-03-01T07:52:11;27.13;;;16.55;;
68655;SDS011;55638;51.122;13.606;2023-03-01T07:53:45;26.73;;;16.35;;
68655;SDS011;55638;51.122;13.606;2023-03-01T07:55:18;23.83;;;15.38;;
68655;SDS011;55638;51.122;13.606;2023-03-01T07:56:51;23.60;;;15.25;;
68655;SDS011;55638;51.122;13.606;2023-03-01T07:58:23;24.90;;;15.90;;
68655;SDS011;55638;51.122;13.606;2023-03-01T07:59:55;25.50;;;15.95;;
68655;SDS011;55638;51.122;13.606;2023-03-01T08:01:26;24.52;;;15.68;;
68655;SDS011;55638;51.122;13.606;2023-03-01T08:02:59;24.27;;;15.98;;
68655;SDS011;55638;51.122;13.606;2023-03-01T08:04:32;26.42;;;16.48;;
68655;SDS011;55638;51.122;13.606;2023-03-01T08:06:05;26.50;;;16.83;;
68655;SDS011;55638;51.122;13.606;2023-03-01T08:07:39;22.70;;;15.27;;
68655;SDS011;55638;51.122;13.606;2023-03-01T08:09:11;25.70;;;15.98;;
68655;SDS011;55638;51.122;13.606;2023-03-01T08:10:42;24.02;;;16.05;;
68655;SDS011;55638;51.122;13.606;2023-03-01T08:12:14;25.77;;;16.58;;
68655;SDS011;55638;51.122;13.606;2023-03-01T08:13:48;28.20;;;17.48;;
68655;SDS011;55638;51.122;13.606;2023-03-01T08:15:23;24.40;;;16.27;;
68655;SDS011;55638;51.122;13.606;2023-03-01T08:16:55;23.17;;;15.90;;
68655;SDS011;55638;51.122;13.606;2023-03-01T08:18:27;21.67;;;15.40;;
68655;SDS011;55638;51.122;13.606;2023-03-01T08:19:59;23.65;;;15.50;;
68655;SDS011;55638;51.122;13.606;2023-03-01T08:21:30;26.65;;;17.30;;
68655;SDS011;55638;51.122;13.606;2023-03-01T08:23:02;26.48;;;17.15;;
68655;SDS011;55638;51.122;13.606;2023-03-01T08:24:34;25.67;;;16.05;;
68655;SDS011;55638;51.122;13.606;2023-03-01T08:26:07;23.05;;;15.63;;
68655;SDS011;55638;51.122;13.606;2023-03-01T08:27:40;24.27;;;15.55;;
68655;SDS011;55638;51.122;13.606;2023-03-01T08:29:12;24.23;;;16.42;;
68655;SDS011;55638;51.122;13.606;2023-03-01T08:30:44;24.02;;;16.67;;
68655;SDS011;55638;51.122;13.606;2023-03-01T08:32:16;22.55;;;15.75;;
68655;SDS011;55638;51.122;13.606;2023-03-01T08:33:48;24.30;;;16.67;;
68655;SDS011;55638;51.122;13.606;2023-03-01T08:35:26;21.77;;;15.88;;
68655;SDS011;55638;51.122;13.606;2023-03-01T08:36:58;23.25;;;16.27;;
68655;SDS011;55638;51.122;13.606;2023-03-01T08:38:29;29.23;;;18.20;;
68655;SDS011;55638;51.122;13.606;2023-03-01T08:40:01;25.52;;;17.17;;
68655;SDS011;55638;51.122;13.606;2023-03-01T08:41:35;24.75;;;16.90;;
68655;SDS011;55638;51.122;13.606;2023-03-01T08:43:07;26.90;;;17.95;;
68655;SDS011;55638;51.122;13.606;2023-03-01T08:44:39;25.05;;;17.10;;
68655;SDS011;55638;51.122;13.606;2023-03-01T08:46:11;26.38;;;16.77;;
68655;SDS011;55638;51.122;13.606;2023-03-01T08:47:43;25.92;;;17.17;;
68655;SDS011;55638;51.122;13.606;2023-03-01T08:49:16;24.80;;;17.05;;
68655;SDS011;55638;51.122;13.606;2023-03-01T08:50:49;26.92;;;18.10;;
68655;SDS011;55638;51.122;13.606;2023-03-01T08:52:20;24.10;;;16.95;;
68655;SDS011;55638;51.122;13.606;2023-03-01T08:53:52;24.30;;;16.77;;
68655;SDS011;55638;51.122;13.606;2023-03-01T08:55:25;25.13;;;16.42;;
68655;SDS011;55638;51.122;13.606;2023-03-01T08:56:57;24.02;;;17.27;;
68655;SDS011;55638;51.122;13.606;2023-03-01T08:58:30;24.80;;;17.77;;
68655;SDS011;55638;51.122;13.606;2023-03-01T09:00:03;25.27;;;17.42;;
68655;SDS011;55638;51.122;13.606;2023-03-01T09:01:40;23.50;;;16.08;;
68655;SDS011;55638;51.122;13.606;2023-03-01T09:03:14;28.65;;;18.77;;
68655;SDS011;55638;51.122;13.606;2023-03-01T09:04:47;27.70;;;18.38;;
68655;SDS011;55638;51.122;13.606;2023-03-01T09:06:18;25.02;;;17.50;;
68655;SDS011;55638;51.122;13.606;2023-03-01T09:07:50;25.15;;;17.35;;
68655;SDS011;55638;51.122;13.606;2023-03-01T09:09:22;27.80;;;18.38;;